createdAt,value
2023-08-19T00:00:20.810Z,99.99
2023-08-19T00:01:20.836Z,99.99
2023-08-19T00:02:20.773Z,99.99
2023-08-19T00:03:20.892Z,99.99
2023-08-19T00:04:20.749Z,99.99
2023-08-19T00:05:20.758Z,99.99
2023-08-19T00:06:20.718Z,99.99
2023-08-19T00:07:20.739Z,99.99
2023-08-19T00:08:20.750Z,99.99
2023-08-19T00:09:20.729Z,99.99
2023-08-19T00:10:20.686Z,99.99
2023-08-19T00:11:20.678Z,99.99
2023-08-19T00:12:20.650Z,99.99
2023-08-19T00:13:20.666Z,99.99
2023-08-19T00:14:20.666Z,99.99
2023-08-19T00:15:20.637Z,99.99
2023-08-19T00:16:20.673Z,99.99
2023-08-19T00:17:20.611Z,99.99
2023-08-19T00:18:20.605Z,99.99
2023-08-19T00:19:20.598Z,99.99
2023-08-19T00:20:20.563Z,99.99
2023-08-19T00:21:20.565Z,99.99
2023-08-19T00:22:20.540Z,99.99
2023-08-19T00:23:20.534Z,99.99
2023-08-19T00:24:20.556Z,99.99
2023-08-19T00:25:20.518Z,99.99
2023-08-19T00:26:20.513Z,99.99
2023-08-19T00:27:20.488Z,99.99
2023-08-19T00:28:20.489Z,99.99
2023-08-19T00:29:20.486Z,99.99
2023-08-19T00:30:20.457Z,99.99
2023-08-19T00:31:20.556Z,99.99
2023-08-19T00:32:20.436Z,99.99
2023-08-19T00:33:20.441Z,99.99
2023-08-19T00:34:20.422Z,99.99
2023-08-19T00:35:20.398Z,99.99
2023-08-19T00:36:20.402Z,99.99
2023-08-19T00:37:20.377Z,99.99
2023-08-19T00:38:20.396Z,99.99
2023-08-19T00:39:20.374Z,99.99
2023-08-19T00:40:20.367Z,99.99
2023-08-19T00:41:20.390Z,99.99
2023-08-19T00:42:20.320Z,99.99
2023-08-19T00:43:20.324Z,99.99
2023-08-19T00:44:20.312Z,99.99
2023-08-19T00:45:20.323Z,99.99
2023-08-19T00:46:20.305Z,99.99
2023-08-19T00:47:20.290Z,99.99
2023-08-19T00:48:20.254Z,99.99
2023-08-19T00:49:20.257Z,99.99
2023-08-19T00:50:20.256Z,99.99
2023-08-19T00:51:20.222Z,99.99
2023-08-19T00:52:20.216Z,99.99
2023-08-19T00:53:20.242Z,99.99
2023-08-19T00:54:20.196Z,99.99
2023-08-19T00:55:20.208Z,99.99
2023-08-19T00:56:20.177Z,99.99
2023-08-19T00:57:20.155Z,99.99
2023-08-19T00:58:20.168Z,99.99
2023-08-19T00:59:20.140Z,99.99
2023-08-19T01:00:20.145Z,99.99
2023-08-19T01:01:20.179Z,99.99
2023-08-19T01:02:20.118Z,99.99
2023-08-19T01:03:20.184Z,99.99
2023-08-19T01:04:20.203Z,99.99
2023-08-19T01:05:20.108Z,99.99
2023-08-19T01:06:20.087Z,99.99
2023-08-19T01:07:20.052Z,99.99
2023-08-19T01:08:20.049Z,99.99
2023-08-19T01:09:20.023Z,99.99
2023-08-19T01:10:20.008Z,99.99
2023-08-19T01:11:20.033Z,99.99
2023-08-19T01:12:19.988Z,99.99
2023-08-19T01:13:19.988Z,99.99
2023-08-19T01:14:19.989Z,99.99
2023-08-19T01:15:19.968Z,99.99
2023-08-19T01:16:20.015Z,99.99
2023-08-19T01:17:19.942Z,99.99
2023-08-19T01:18:19.940Z,99.99
2023-08-19T01:19:19.921Z,99.99
2023-08-19T01:20:19.951Z,99.99
2023-08-19T01:21:19.907Z,99.99
2023-08-19T01:22:19.888Z,99.99
2023-08-19T01:23:19.867Z,99.99
2023-08-19T01:24:19.860Z,99.99
2023-08-19T01:25:19.887Z,99.99
2023-08-19T01:26:19.868Z,99.99
2023-08-19T01:27:19.829Z,99.99
2023-08-19T01:28:19.818Z,99.99
2023-08-19T01:29:19.816Z,99.99
2023-08-19T01:30:19.795Z,99.99
2023-08-19T01:31:19.809Z,99.99
2023-08-19T01:32:19.790Z,99.99
2023-08-19T01:33:19.762Z,99.99
2023-08-19T01:34:19.759Z,99.99
2023-08-19T01:35:19.749Z,99.99
2023-08-19T01:36:19.759Z,99.99
2023-08-19T01:37:19.724Z,99.99
2023-08-19T01:38:19.706Z,99.99
2023-08-19T01:39:19.705Z,99.99
2023-08-19T01:40:19.677Z,99.99
2023-08-19T01:41:19.684Z,99.99
2023-08-19T01:42:19.725Z,99.99
2023-08-19T01:43:19.655Z,99.99
2023-08-19T01:44:19.655Z,99.99
2023-08-19T01:45:19.643Z,99.99
2023-08-19T01:46:19.638Z,99.99
2023-08-19T01:47:19.618Z,99.99
2023-08-19T01:48:19.614Z,99.99
2023-08-19T01:49:20.972Z,99.99
2023-08-19T01:50:19.565Z,99.99
2023-08-19T01:51:19.589Z,99.99
2023-08-19T01:52:19.578Z,99.99
2023-08-19T01:53:19.574Z,99.99
2023-08-19T01:54:19.531Z,99.99
2023-08-19T01:55:19.560Z,99.99
2023-08-19T01:56:19.504Z,99.99
2023-08-19T01:57:19.503Z,99.99
2023-08-19T01:58:19.524Z,99.99
2023-08-19T01:59:19.466Z,99.99
2023-08-19T02:00:19.463Z,99.99
2023-08-19T02:01:19.495Z,99.99
2023-08-19T02:02:19.450Z,99.99
2023-08-19T02:03:19.477Z,99.99
2023-08-19T02:04:19.429Z,99.99
2023-08-19T02:05:19.531Z,99.99
2023-08-19T02:06:19.426Z,99.99
2023-08-19T02:07:19.399Z,99.99
2023-08-19T02:08:19.403Z,99.99
2023-08-19T02:09:19.361Z,99.99
2023-08-19T02:10:19.353Z,99.99
2023-08-19T02:11:19.349Z,99.99
2023-08-19T02:12:19.327Z,99.99
2023-08-19T02:13:19.352Z,99.99
2023-08-19T02:14:19.345Z,99.99
2023-08-19T02:15:19.323Z,99.99
2023-08-19T02:16:19.297Z,99.99
2023-08-19T02:17:19.289Z,99.99
2023-08-19T02:18:19.289Z,99.99
2023-08-19T02:19:19.260Z,99.99
2023-08-19T02:20:19.242Z,99.99
2023-08-19T02:21:19.239Z,99.99
2023-08-19T02:22:19.243Z,99.99
2023-08-19T02:23:19.241Z,99.99
2023-08-19T02:24:19.227Z,99.99
2023-08-19T02:25:19.202Z,99.99
2023-08-19T02:26:19.174Z,99.99
2023-08-19T02:27:19.197Z,99.99
2023-08-19T02:28:19.167Z,99.99
2023-08-19T02:29:19.164Z,99.99
2023-08-19T02:30:19.136Z,99.99
2023-08-19T02:31:19.150Z,99.99
2023-08-19T02:32:19.140Z,99.99
2023-08-19T02:33:19.111Z,99.99
2023-08-19T02:34:19.133Z,99.99
2023-08-19T02:35:19.135Z,99.99
2023-08-19T02:36:19.071Z,99.99
2023-08-19T02:37:19.087Z,99.99
2023-08-19T02:38:19.046Z,99.99
2023-08-19T02:39:19.077Z,99.99
2023-08-19T02:40:19.020Z,99.99
2023-08-19T02:41:19.024Z,99.99
2023-08-19T02:42:19.005Z,99.99
2023-08-19T02:43:18.988Z,99.99
2023-08-19T02:44:19.005Z,99.99
2023-08-19T02:45:18.985Z,99.99
2023-08-19T02:46:18.996Z,99.99
2023-08-19T02:47:18.936Z,99.99
2023-08-19T02:48:19.012Z,99.99
2023-08-19T02:49:18.947Z,99.99
2023-08-19T02:50:18.942Z,99.99
2023-08-19T02:51:18.905Z,99.99
2023-08-19T02:52:18.917Z,99.99
2023-08-19T02:53:18.895Z,99.99
2023-08-19T02:54:18.899Z,99.99
2023-08-19T02:55:18.899Z,99.99
2023-08-19T02:56:18.844Z,99.99
2023-08-19T02:57:18.850Z,99.99
2023-08-19T02:58:18.821Z,99.99
2023-08-19T02:59:18.810Z,99.99
2023-08-19T03:00:18.832Z,99.99
2023-08-19T03:01:18.824Z,99.99
2023-08-19T03:02:18.916Z,99.99
2023-08-19T03:03:18.895Z,99.99
2023-08-19T03:04:18.755Z,99.99
2023-08-19T03:05:18.757Z,99.99
2023-08-19T03:06:18.734Z,99.99
2023-08-19T03:07:18.744Z,99.99
2023-08-19T03:08:18.741Z,99.99
2023-08-19T03:09:18.709Z,99.99
2023-08-19T03:10:18.741Z,99.99
2023-08-19T03:11:18.695Z,99.99
2023-08-19T03:12:18.671Z,99.99
2023-08-19T03:13:18.664Z,99.99
2023-08-19T03:14:18.666Z,99.99
2023-08-19T03:15:18.670Z,99.99
2023-08-19T03:16:18.650Z,99.99
2023-08-19T03:17:18.632Z,99.99
2023-08-19T03:18:18.606Z,99.99
2023-08-19T03:19:18.641Z,99.99
2023-08-19T03:20:18.601Z,99.99
2023-08-19T03:21:18.576Z,99.99
2023-08-19T03:22:18.582Z,99.99
2023-08-19T03:23:18.558Z,99.99
2023-08-19T03:24:18.545Z,99.99
2023-08-19T03:25:18.535Z,99.99
2023-08-19T03:26:18.523Z,99.99
2023-08-19T03:27:18.506Z,99.99
2023-08-19T03:28:18.501Z,99.99
2023-08-19T03:29:18.539Z,99.99
2023-08-19T03:30:18.493Z,99.99
2023-08-19T03:31:18.457Z,99.99
2023-08-19T03:32:18.575Z,99.99
2023-08-19T03:33:18.582Z,99.99
2023-08-19T03:34:18.475Z,99.99
2023-08-19T03:35:18.430Z,99.99
2023-08-19T03:36:18.454Z,99.99
2023-08-19T03:37:18.393Z,99.99
2023-08-19T03:38:18.402Z,99.99
2023-08-19T03:39:18.391Z,99.99
2023-08-19T03:40:18.373Z,99.99
2023-08-19T03:41:18.397Z,99.99
2023-08-19T03:42:18.334Z,99.99
2023-08-19T03:43:18.360Z,99.99
2023-08-19T03:44:18.324Z,99.99
2023-08-19T03:45:18.325Z,99.99
2023-08-19T03:46:18.351Z,99.99
2023-08-19T03:47:18.279Z,99.99
2023-08-19T03:48:18.278Z,99.99
2023-08-19T03:49:18.270Z,99.99
2023-08-19T03:50:18.253Z,99.99
2023-08-19T03:51:18.254Z,99.99
2023-08-19T03:52:18.235Z,99.99
2023-08-19T03:53:18.251Z,99.99
2023-08-19T03:54:18.226Z,99.99
2023-08-19T03:55:18.235Z,99.99
2023-08-19T03:56:18.223Z,99.99
2023-08-19T03:57:18.168Z,99.99
2023-08-19T03:58:18.176Z,99.99
2023-08-19T03:59:18.148Z,99.99
2023-08-19T04:00:18.150Z,99.99
2023-08-19T04:01:18.201Z,99.99
2023-08-19T04:02:18.136Z,99.99
2023-08-19T04:03:18.139Z,99.99
2023-08-19T04:04:18.212Z,99.99
2023-08-19T04:05:18.110Z,99.99
2023-08-19T04:06:18.109Z,99.99
2023-08-19T04:07:18.074Z,99.99
2023-08-19T04:08:18.065Z,99.99
2023-08-19T04:09:18.098Z,99.99
2023-08-19T04:10:18.069Z,99.99
2023-08-19T04:11:18.031Z,99.99
2023-08-19T04:12:18.034Z,99.99
2023-08-19T04:13:18.017Z,99.99
2023-08-19T04:14:17.995Z,99.99
2023-08-19T04:15:17.994Z,99.99
2023-08-19T04:16:18.022Z,99.99
2023-08-19T04:17:17.975Z,99.99
2023-08-19T04:18:17.947Z,99.99
2023-08-19T04:19:17.946Z,99.99
2023-08-19T04:20:17.926Z,99.99
2023-08-19T04:21:17.912Z,99.99
2023-08-19T04:22:17.913Z,99.99
2023-08-19T04:23:17.885Z,99.99
2023-08-19T04:24:17.866Z,99.99
2023-08-19T04:25:17.868Z,99.99
2023-08-19T04:26:17.859Z,99.99
2023-08-19T04:27:17.894Z,99.99
2023-08-19T04:28:17.842Z,99.99
2023-08-19T04:29:17.829Z,99.99
2023-08-19T04:30:17.806Z,99.99
2023-08-19T04:31:17.821Z,99.99
2023-08-19T04:32:17.821Z,99.99
2023-08-19T04:33:17.888Z,99.99
2023-08-19T04:34:17.773Z,99.99
2023-08-19T04:35:17.791Z,99.99
2023-08-19T04:36:17.754Z,99.99
2023-08-19T04:37:17.742Z,99.99
2023-08-19T04:38:17.735Z,99.99
2023-08-19T04:39:17.717Z,99.99
2023-08-19T04:40:17.701Z,99.99
2023-08-19T04:41:17.725Z,99.99
2023-08-19T04:42:17.687Z,99.99
2023-08-19T04:43:17.675Z,99.99
2023-08-19T04:44:17.645Z,99.99
2023-08-19T04:45:17.650Z,99.99
2023-08-19T04:46:17.664Z,99.99
2023-08-19T04:47:17.641Z,99.99
2023-08-19T04:48:17.644Z,99.99
2023-08-19T04:49:17.607Z,99.99
2023-08-19T04:50:17.596Z,99.99
2023-08-19T04:51:17.610Z,99.99
2023-08-19T04:52:17.561Z,99.99
2023-08-19T04:53:17.613Z,99.99
2023-08-19T04:54:17.540Z,99.99
2023-08-19T04:55:17.547Z,99.99
2023-08-19T04:56:18.447Z,99.99
2023-08-19T04:57:17.515Z,99.99
2023-08-19T04:58:17.510Z,99.99
2023-08-19T04:59:17.535Z,99.99
2023-08-19T05:00:17.468Z,99.99
2023-08-19T05:01:17.516Z,99.99
2023-08-19T05:02:17.457Z,99.99
2023-08-19T05:03:17.474Z,99.99
2023-08-19T05:04:17.472Z,99.99
2023-08-19T05:05:17.434Z,99.99
2023-08-19T05:06:17.418Z,99.99
2023-08-19T05:07:17.417Z,99.99
2023-08-19T05:08:17.411Z,99.99
2023-08-19T05:09:17.411Z,99.99
2023-08-19T05:10:17.363Z,99.99
2023-08-19T05:11:17.363Z,99.99
2023-08-19T05:12:17.362Z,99.99
2023-08-19T05:13:17.374Z,99.99
2023-08-19T05:14:17.385Z,99.99
2023-08-19T05:15:17.312Z,99.99
2023-08-19T05:16:17.343Z,99.99
2023-08-19T05:17:17.305Z,99.99
2023-08-19T05:18:17.292Z,99.99
2023-08-19T05:19:17.280Z,99.99
2023-08-19T05:20:17.262Z,99.99
2023-08-19T05:21:17.261Z,99.99
2023-08-19T05:22:17.243Z,99.99
2023-08-19T05:23:17.233Z,99.99
2023-08-19T05:24:17.255Z,99.99
2023-08-19T05:25:17.215Z,99.99
2023-08-19T05:26:17.213Z,99.99
2023-08-19T05:27:17.172Z,99.99
2023-08-19T05:28:17.177Z,99.99
2023-08-19T05:29:17.162Z,99.99
2023-08-19T05:30:17.190Z,99.99
2023-08-19T05:31:17.176Z,99.99
2023-08-19T05:32:17.143Z,99.99
2023-08-19T05:33:17.111Z,99.99
2023-08-19T05:34:17.118Z,99.99
2023-08-19T05:35:17.146Z,99.99
2023-08-19T05:36:17.106Z,99.99
2023-08-19T05:37:17.068Z,99.99
2023-08-19T05:38:17.064Z,99.99
2023-08-19T05:39:17.056Z,99.99
2023-08-19T05:40:17.076Z,99.99
2023-08-19T05:41:17.022Z,99.99
2023-08-19T05:42:17.035Z,98.88
2023-08-19T05:43:17.044Z,97.73
2023-08-19T05:44:17.168Z,96.33
2023-08-19T05:45:17.014Z,95.28
2023-08-19T05:46:16.984Z,94.04
2023-08-19T05:47:16.978Z,93.19
2023-08-19T05:48:16.959Z,92.49
2023-08-19T05:49:17.047Z,91.64
2023-08-19T05:50:16.951Z,90.75
2023-08-19T05:51:16.923Z,90.20
2023-08-19T05:52:16.908Z,89.76
2023-08-19T05:53:16.897Z,89.26
2023-08-19T05:54:16.888Z,88.22
2023-08-19T05:55:16.884Z,87.23
2023-08-19T05:56:16.913Z,86.79
2023-08-19T05:57:16.858Z,85.94
2023-08-19T05:58:16.856Z,85.94
2023-08-19T05:59:16.832Z,85.64
2023-08-19T06:00:16.826Z,85.64
2023-08-19T06:01:16.877Z,84.70
2023-08-19T06:02:16.804Z,84.61
2023-08-19T06:03:16.945Z,83.91
2023-08-19T06:04:16.786Z,84.01
2023-08-19T06:05:16.773Z,84.55
2023-08-19T06:06:16.765Z,84.51
2023-08-19T06:07:16.735Z,84.70
2023-08-19T06:08:16.772Z,84.65
2023-08-19T06:09:16.737Z,85.28
2023-08-19T06:10:16.728Z,85.88
2023-08-19T06:11:16.725Z,86.63
2023-08-19T06:12:16.723Z,86.93
2023-08-19T06:13:16.684Z,87.66
2023-08-19T06:14:16.663Z,88.71
2023-08-19T06:15:16.648Z,89.65
2023-08-19T06:16:16.690Z,90.25
2023-08-19T06:17:16.630Z,91.15
2023-08-19T06:18:16.631Z,91.15
2023-08-19T06:19:16.630Z,91.15
2023-08-19T06:20:16.598Z,91.39
2023-08-19T06:21:16.614Z,91.55
2023-08-19T06:22:16.584Z,91.05
2023-08-19T06:23:16.562Z,90.20
2023-08-19T06:24:16.558Z,89.90
2023-08-19T06:25:16.561Z,89.61
2023-08-19T06:26:16.539Z,89.61
2023-08-19T06:27:16.518Z,89.81
2023-08-19T06:28:16.499Z,89.90
2023-08-19T06:29:16.498Z,90.35
2023-08-19T06:30:16.491Z,90.95
2023-08-19T06:31:17.894Z,90.95
2023-08-19T06:32:16.469Z,90.84
2023-08-19T06:33:16.463Z,90.95
2023-08-19T06:34:16.451Z,90.75
2023-08-19T06:35:16.472Z,90.84
2023-08-19T06:36:16.407Z,90.35
2023-08-19T06:37:16.411Z,90.25
2023-08-19T06:38:16.398Z,90.55
2023-08-19T06:39:16.366Z,90.45
2023-08-19T06:40:16.361Z,91.15
2023-08-19T06:41:16.354Z,91.35
2023-08-19T06:42:16.373Z,91.35
2023-08-19T06:43:16.331Z,91.55
2023-08-19T06:44:16.329Z,91.75
2023-08-19T06:45:16.300Z,91.45
2023-08-19T06:46:16.309Z,91.05
2023-08-19T06:47:16.279Z,90.80
2023-08-19T06:48:16.304Z,90.30
2023-08-19T06:49:16.278Z,90.11
2023-08-19T06:50:16.264Z,89.16
2023-08-19T06:51:16.255Z,88.96
2023-08-19T06:52:16.251Z,88.52
2023-08-19T06:53:16.226Z,88.12
2023-08-19T06:54:16.228Z,87.78
2023-08-19T06:55:16.198Z,86.88
2023-08-19T06:56:16.218Z,86.94
2023-08-19T06:57:16.159Z,86.68
2023-08-19T06:58:16.185Z,86.68
2023-08-19T06:59:16.139Z,87.28
2023-08-19T07:00:16.169Z,87.38
2023-08-19T07:01:16.137Z,87.18
2023-08-19T07:02:16.139Z,86.79
2023-08-19T07:03:16.174Z,86.88
2023-08-19T07:04:16.124Z,86.79
2023-08-19T07:05:16.085Z,86.68
2023-08-19T07:06:16.063Z,86.04
2023-08-19T07:07:16.060Z,86.15
2023-08-19T07:08:16.073Z,86.04
2023-08-19T07:09:16.063Z,86.24
2023-08-19T07:10:16.049Z,86.64
2023-08-19T07:11:16.010Z,86.10
2023-08-19T07:12:16.031Z,85.60
2023-08-19T07:13:15.981Z,85.21
2023-08-19T07:14:16.000Z,85.57
2023-08-19T07:15:16.028Z,84.86
2023-08-19T07:16:16.001Z,84.86
2023-08-19T07:17:15.964Z,84.37
2023-08-19T07:18:18.480Z,83.73
2023-08-19T07:19:15.921Z,83.77
2023-08-19T07:20:15.933Z,83.57
2023-08-19T07:21:15.920Z,83.17
2023-08-19T07:22:15.905Z,84.31
2023-08-19T07:23:15.884Z,84.81
2023-08-19T07:24:15.890Z,85.21
2023-08-19T07:25:15.892Z,85.44
2023-08-19T07:26:15.881Z,85.94
2023-08-19T07:27:15.860Z,86.94
2023-08-19T07:28:15.852Z,86.34
2023-08-19T07:29:15.811Z,87.18
2023-08-19T07:30:15.835Z,87.58
2023-08-19T07:31:15.834Z,87.08
2023-08-19T07:32:15.797Z,87.38
2023-08-19T07:33:15.769Z,87.68
2023-08-19T07:34:15.764Z,87.78
2023-08-19T07:35:15.758Z,87.92
2023-08-19T07:36:15.746Z,88.42
2023-08-19T07:37:15.750Z,88.08
2023-08-19T07:38:15.748Z,87.88
2023-08-19T07:39:15.715Z,88.08
2023-08-19T07:40:15.714Z,88.92
2023-08-19T07:41:15.679Z,88.78
2023-08-19T07:42:15.683Z,88.48
2023-08-19T07:43:15.702Z,88.28
2023-08-19T07:44:15.659Z,88.18
2023-08-19T07:45:15.643Z,87.48
2023-08-19T07:46:15.686Z,88.18
2023-08-19T07:47:15.666Z,87.78
2023-08-19T07:48:15.652Z,87.38
2023-08-19T07:49:15.622Z,87.48
2023-08-19T07:50:15.578Z,87.48
2023-08-19T07:51:15.574Z,88.18
2023-08-19T07:52:15.593Z,87.88
2023-08-19T07:53:15.549Z,88.08
2023-08-19T07:54:15.563Z,87.48
2023-08-19T07:55:15.525Z,87.28
2023-08-19T07:56:15.525Z,87.14
2023-08-19T07:57:15.495Z,87.34
2023-08-19T07:58:15.517Z,86.84
2023-08-19T07:59:15.485Z,86.88
2023-08-19T08:00:15.496Z,86.74
2023-08-19T08:01:15.495Z,86.84
2023-08-19T08:02:15.448Z,87.24
2023-08-19T08:03:15.434Z,86.94
2023-08-19T08:04:15.450Z,87.24
2023-08-19T08:05:15.490Z,87.54
2023-08-19T08:06:15.460Z,87.64
2023-08-19T08:07:15.399Z,87.84
2023-08-19T08:08:15.383Z,87.44
2023-08-19T08:09:15.364Z,87.14
2023-08-19T08:10:15.359Z,86.90
2023-08-19T08:11:15.378Z,87.20
2023-08-19T08:12:15.357Z,86.70
2023-08-19T08:13:15.347Z,86.90
2023-08-19T08:14:15.309Z,87.10
2023-08-19T08:15:15.312Z,87.00
2023-08-19T08:16:15.325Z,86.46
2023-08-19T08:17:15.316Z,86.96
2023-08-19T08:18:15.292Z,86.36
2023-08-19T08:19:15.293Z,86.56
2023-08-19T08:20:15.292Z,85.96
2023-08-19T08:21:15.278Z,85.76
2023-08-19T08:22:15.248Z,85.96
2023-08-19T08:23:15.347Z,85.96
2023-08-19T08:24:15.210Z,85.86
2023-08-19T08:25:15.193Z,85.46
2023-08-19T08:26:15.191Z,86.30
2023-08-19T08:27:15.195Z,86.30
2023-08-19T08:28:15.172Z,86.70
2023-08-19T08:29:15.180Z,86.60
2023-08-19T08:30:15.146Z,86.56
2023-08-19T08:31:15.192Z,86.66
2023-08-19T08:32:15.129Z,86.56
2023-08-19T08:33:15.140Z,86.76
2023-08-19T08:34:15.093Z,85.92
2023-08-19T08:35:15.170Z,86.12
2023-08-19T08:36:15.076Z,85.72
2023-08-19T08:37:15.061Z,85.72
2023-08-19T08:38:15.089Z,85.52
2023-08-19T08:39:15.044Z,85.92
2023-08-19T08:40:15.036Z,85.92
2023-08-19T08:41:15.029Z,85.92
2023-08-19T08:42:15.013Z,85.88
2023-08-19T08:43:14.991Z,85.78
2023-08-19T08:44:14.997Z,85.14
2023-08-19T08:45:14.987Z,85.24
2023-08-19T08:46:15.061Z,83.91
2023-08-19T08:47:14.964Z,83.81
2023-08-19T08:48:16.317Z,84.01
2023-08-19T08:49:14.942Z,83.91
2023-08-19T08:50:14.934Z,84.70
2023-08-19T08:51:14.916Z,84.41
2023-08-19T08:52:14.940Z,84.31
2023-08-19T08:53:14.892Z,83.37
2023-08-19T08:54:14.879Z,82.97
2023-08-19T08:55:14.867Z,82.54
2023-08-19T08:56:14.860Z,81.84
2023-08-19T08:57:14.849Z,81.11
2023-08-19T08:58:14.859Z,80.97
2023-08-19T08:59:14.869Z,80.08
2023-08-19T09:00:14.817Z,79.24
2023-08-19T09:01:14.885Z,77.56
2023-08-19T09:02:14.792Z,77.36
2023-08-19T09:03:14.855Z,76.82
2023-08-19T09:04:14.768Z,76.10
2023-08-19T09:05:14.769Z,75.60
2023-08-19T09:06:14.751Z,74.38
2023-08-19T09:07:14.751Z,73.41
2023-08-19T09:08:14.722Z,72.49
2023-08-19T09:09:14.749Z,72.06
2023-08-19T09:10:14.743Z,71.43
2023-08-19T09:11:14.681Z,70.25
2023-08-19T09:12:14.696Z,71.23
2023-08-19T09:13:14.744Z,71.33
2023-08-19T09:14:14.674Z,71.23
2023-08-19T09:15:14.674Z,72.16
2023-08-19T09:16:14.690Z,73.47
2023-08-19T09:17:14.623Z,74.30
2023-08-19T09:18:14.661Z,75.23
2023-08-19T09:19:14.599Z,75.67
2023-08-19T09:20:14.613Z,76.35
2023-08-19T09:21:14.592Z,75.76
2023-08-19T09:22:14.585Z,75.33
2023-08-19T09:23:14.580Z,74.04
2023-08-19T09:24:14.544Z,74.04
2023-08-19T09:25:14.566Z,73.22
2023-08-19T09:26:14.579Z,72.78
2023-08-19T09:27:14.509Z,72.49
2023-08-19T09:28:14.518Z,72.29
2023-08-19T09:29:14.531Z,72.39
2023-08-19T09:30:14.493Z,72.59
2023-08-19T09:31:14.515Z,71.99
2023-08-19T09:32:14.489Z,71.37
2023-08-19T09:33:14.470Z,71.26
2023-08-19T09:34:14.460Z,71.14
2023-08-19T09:35:14.427Z,70.38
2023-08-19T09:36:14.444Z,70.08
2023-08-19T09:37:14.425Z,70.31
2023-08-19T09:38:14.448Z,69.92
2023-08-19T09:39:14.391Z,70.31
2023-08-19T09:40:14.387Z,71.00
2023-08-19T09:41:14.401Z,70.51
2023-08-19T09:42:14.373Z,70.90
2023-08-19T09:43:14.405Z,70.90
2023-08-19T09:44:14.405Z,70.51
2023-08-19T09:45:14.344Z,71.40
2023-08-19T09:46:14.377Z,71.20
2023-08-19T09:47:14.344Z,71.26
2023-08-19T09:48:14.300Z,71.37
2023-08-19T09:49:14.330Z,72.09
2023-08-19T09:50:14.308Z,72.39
2023-08-19T09:51:14.349Z,70.67
2023-08-19T09:52:14.273Z,71.70
2023-08-19T09:53:14.266Z,72.25
2023-08-19T09:54:14.252Z,72.49
2023-08-19T09:55:14.279Z,73.47
2023-08-19T09:56:14.223Z,73.97
2023-08-19T09:57:14.216Z,74.46
2023-08-19T09:58:14.216Z,74.86
2023-08-19T09:59:14.218Z,74.86
2023-08-19T10:00:14.194Z,74.96
2023-08-19T10:01:14.210Z,75.56
2023-08-19T10:02:14.180Z,75.95
2023-08-19T10:03:14.241Z,75.85
2023-08-19T10:04:14.169Z,76.09
2023-08-19T10:05:14.164Z,75.56
2023-08-19T10:06:14.122Z,75.75
2023-08-19T10:07:14.114Z,75.85
2023-08-19T10:08:14.124Z,75.75
2023-08-19T10:09:14.107Z,76.05
2023-08-19T10:10:14.084Z,74.17
2023-08-19T10:11:14.145Z,74.90
2023-08-19T10:12:14.057Z,75.39
2023-08-19T10:13:14.066Z,74.86
2023-08-19T10:14:14.038Z,73.97
2023-08-19T10:15:14.046Z,73.47
2023-08-19T10:16:14.057Z,72.55
2023-08-19T10:17:14.050Z,71.99
2023-08-19T10:18:14.021Z,72.09
2023-08-19T10:19:13.993Z,71.20
2023-08-19T10:20:13.993Z,71.89
2023-08-19T10:21:13.983Z,70.67
2023-08-19T10:22:13.959Z,70.90
2023-08-19T10:23:13.988Z,69.42
2023-08-19T10:24:13.959Z,69.72
2023-08-19T10:25:13.938Z,69.23
2023-08-19T10:26:13.937Z,69.23
2023-08-19T10:27:13.920Z,68.93
2023-08-19T10:28:13.948Z,69.23
2023-08-19T10:29:13.886Z,69.12
2023-08-19T10:30:13.877Z,69.02
2023-08-19T10:31:13.895Z,69.32
2023-08-19T10:32:13.860Z,69.52
2023-08-19T10:33:13.878Z,69.29
2023-08-19T10:34:13.869Z,69.59
2023-08-19T10:35:13.833Z,69.68
2023-08-19T10:36:13.821Z,69.26
2023-08-19T10:37:13.804Z,69.16
2023-08-19T10:38:13.788Z,69.45
2023-08-19T10:39:13.779Z,69.16
2023-08-19T10:40:13.779Z,69.16
2023-08-19T10:41:13.767Z,69.26
2023-08-19T10:42:13.752Z,69.16
2023-08-19T10:43:13.743Z,68.93
2023-08-19T10:44:13.778Z,69.32
2023-08-19T10:45:13.704Z,69.32
2023-08-19T10:46:16.149Z,69.12
2023-08-19T10:47:13.679Z,68.89
2023-08-19T10:48:13.706Z,68.89
2023-08-19T10:49:13.671Z,68.37
2023-08-19T10:50:13.652Z,68.27
2023-08-19T10:51:13.673Z,68.76
2023-08-19T10:52:13.618Z,67.87
2023-08-19T10:53:13.667Z,67.74
2023-08-19T10:54:13.618Z,68.13
2023-08-19T10:55:13.615Z,67.55
2023-08-19T10:56:13.589Z,68.01
2023-08-19T10:57:13.589Z,66.85
2023-08-19T10:58:13.569Z,66.75
2023-08-19T10:59:13.561Z,67.15
2023-08-19T11:00:13.539Z,67.65
2023-08-19T11:01:13.572Z,67.44
2023-08-19T11:02:13.520Z,67.25
2023-08-19T11:03:13.559Z,67.35
2023-08-19T11:04:13.536Z,66.75
2023-08-19T11:05:15.853Z,66.96
2023-08-19T11:06:13.522Z,67.44
2023-08-19T11:07:13.484Z,67.32
2023-08-19T11:08:13.457Z,66.23
2023-08-19T11:09:13.462Z,65.64
2023-08-19T11:10:13.424Z,65.25
2023-08-19T11:11:15.670Z,65.64
2023-08-19T11:12:13.456Z,66.82
2023-08-19T11:13:13.429Z,65.64
2023-08-19T11:14:13.429Z,65.44
2023-08-19T11:15:13.394Z,65.05
2023-08-19T11:16:13.396Z,66.03
2023-08-19T11:17:14.567Z,64.62
2023-08-19T11:18:13.384Z,64.32
2023-08-19T11:19:13.350Z,64.32
2023-08-19T11:20:13.364Z,63.31
2023-08-19T11:21:13.370Z,63.12
2023-08-19T11:22:13.330Z,62.23
2023-08-19T11:23:13.301Z,61.34
2023-08-19T11:24:13.280Z,61.02
2023-08-19T11:25:13.287Z,60.63
2023-08-19T11:26:13.284Z,59.61
2023-08-19T11:27:13.265Z,59.31
2023-08-19T11:28:13.245Z,59.22
2023-08-19T11:29:13.245Z,58.99
2023-08-19T11:30:13.242Z,58.01
2023-08-19T11:31:13.280Z,57.91
2023-08-19T11:32:13.241Z,57.12
2023-08-19T11:33:13.246Z,56.73
2023-08-19T11:34:13.206Z,57.71
2023-08-19T11:35:13.170Z,58.04
2023-08-19T11:36:13.200Z,58.30
2023-08-19T11:37:13.184Z,57.32
2023-08-19T11:38:13.145Z,57.51
2023-08-19T11:39:13.130Z,58.92
2023-08-19T11:40:22.766Z,58.20
2023-08-19T11:41:13.127Z,58.20
2023-08-19T11:42:13.093Z,57.45
2023-08-19T11:43:13.107Z,57.74
2023-08-19T11:44:13.084Z,58.04
2023-08-19T11:45:13.061Z,57.54
2023-08-19T11:46:13.110Z,58.23
2023-08-19T11:47:13.076Z,57.81
2023-08-19T11:48:13.051Z,58.01
2023-08-19T11:49:13.035Z,58.11
2023-08-19T11:50:13.013Z,57.91
2023-08-19T11:51:13.004Z,58.01
2023-08-19T11:52:12.985Z,58.40
2023-08-19T11:53:13.013Z,59.19
2023-08-19T11:54:12.968Z,58.99
2023-08-19T11:55:12.984Z,58.47
2023-08-19T11:56:12.974Z,59.16
2023-08-19T11:57:12.957Z,59.26
2023-08-19T11:58:12.933Z,58.37
2023-08-19T11:59:12.936Z,58.28
2023-08-19T12:00:12.917Z,58.67
2023-08-19T12:01:12.924Z,58.57
2023-08-19T12:02:12.894Z,58.76
2023-08-19T12:03:13.064Z,58.76
2023-08-19T12:04:12.994Z,59.45
2023-08-19T12:05:12.905Z,58.20
2023-08-19T12:06:12.853Z,59.39
2023-08-19T12:07:12.857Z,58.80
2023-08-19T12:08:12.813Z,59.09
2023-08-19T12:09:12.828Z,58.70
2023-08-19T12:10:12.812Z,58.89
2023-08-19T12:11:12.808Z,59.09
2023-08-19T12:12:12.787Z,59.31
2023-08-19T12:13:12.776Z,58.92
2023-08-19T12:14:12.764Z,58.30
2023-08-19T12:15:12.763Z,58.40
2023-08-19T12:16:12.793Z,58.70
2023-08-19T12:17:12.755Z,58.11
2023-08-19T12:18:12.766Z,58.50
2023-08-19T12:19:12.698Z,58.40
2023-08-19T12:20:12.716Z,58.30
2023-08-19T12:21:12.702Z,58.08
2023-08-19T12:22:12.681Z,57.88
2023-08-19T12:23:12.667Z,58.37
2023-08-19T12:24:12.681Z,58.37
2023-08-19T12:25:12.644Z,58.28
2023-08-19T12:26:12.638Z,58.47
2023-08-19T12:27:12.650Z,58.15
2023-08-19T12:28:12.630Z,57.86
2023-08-19T12:29:12.601Z,57.76
2023-08-19T12:30:12.608Z,57.95
2023-08-19T12:31:12.602Z,58.02
2023-08-19T12:32:12.566Z,57.92
2023-08-19T12:33:12.627Z,57.76
2023-08-19T12:34:12.544Z,59.33
2023-08-19T12:35:12.532Z,58.54
2023-08-19T12:37:12.506Z,58.81
2023-08-19T12:38:12.530Z,58.22
2023-08-19T12:39:12.499Z,57.92
2023-08-19T12:40:12.482Z,58.91
2023-08-19T12:41:12.476Z,58.32
2023-08-19T12:42:12.521Z,58.51
2023-08-19T12:43:12.440Z,57.82
2023-08-19T12:44:12.480Z,57.66
2023-08-19T12:45:12.444Z,58.54
2023-08-19T12:46:12.582Z,59.42
2023-08-19T12:47:12.503Z,58.64
2023-08-19T12:48:12.439Z,58.44
2023-08-19T12:49:12.385Z,58.34
2023-08-19T12:50:13.538Z,58.74
2023-08-19T12:51:12.358Z,59.55
2023-08-19T12:52:12.361Z,59.36
2023-08-19T12:53:12.341Z,59.26